createdAt,value
2019-02-07T00:02:01.644Z,101208.12
2019-02-07T00:03:46.250Z,101204.15
2019-02-07T00:07:14.371Z,101198.86
2019-02-07T00:08:38.818Z,101194.89
2019-02-07T00:09:43.953Z,101196.30
2019-02-07T00:10:48.960Z,101193.39
2019-02-07T00:12:13.238Z,101188.95
2019-02-07T00:13:37.421Z,101184.04
2019-02-07T00:14:42.382Z,101191.01
2019-02-07T00:16:06.616Z,101188.75
2019-02-07T00:17:30.731Z,101187.51
2019-02-07T00:18:35.775Z,101179.22
2019-02-07T00:19:40.834Z,101173.93
2019-02-07T00:21:06.972Z,101174.66
2019-02-07T00:22:31.447Z,101176.45
2019-02-07T00:23:36.825Z,101169.37
2019-02-07T00:25:01.271Z,101164.08
2019-02-07T00:27:50.958Z,101156.61
2019-02-07T00:29:15.152Z,101153.97
2019-02-07T00:32:29.266Z,101157.94
2019-02-07T00:33:53.434Z,101148.80
2019-02-07T00:35:17.541Z,101147.94
2019-02-07T00:36:22.781Z,101136.13
2019-02-07T00:39:36.991Z,101139.09
2019-02-07T00:40:42.298Z,101133.62
2019-02-07T00:41:47.606Z,101135.89
2019-02-07T00:43:11.756Z,101130.45
2019-02-07T00:44:16.762Z,101128.37
2019-02-07T00:45:21.947Z,101126.31
2019-02-07T00:46:39.246Z,101121.97
2019-02-07T00:48:23.935Z,101113.64
2019-02-07T00:49:29.146Z,101114.14
2019-02-07T00:51:14.414Z,101113.64
2019-02-07T00:52:19.577Z,101115.94
2019-02-07T00:53:44.049Z,101109.89
2019-02-07T00:54:49.095Z,101106.04
2019-02-07T00:55:54.725Z,101102.16
2019-02-07T00:57:19.184Z,101102.63
2019-02-07T00:58:24.329Z,101094.90
2019-02-07T00:59:29.414Z,101091.05
2019-02-07T01:01:38.733Z,101095.95
2019-02-07T01:02:44.125Z,101090.29
2019-02-07T01:03:49.083Z,101083.67
2019-02-07T01:04:54.185Z,101082.00
2019-02-07T01:05:59.384Z,101083.80
2019-02-07T01:07:04.657Z,101077.66
2019-02-07T01:08:12.155Z,101075.02
2019-02-07T01:09:17.217Z,101072.84
2019-02-07T01:10:24.017Z,101069.34
2019-02-07T01:11:29.055Z,101070.87
2019-02-07T01:12:34.080Z,101067.48
2019-02-07T01:13:39.115Z,101069.28
2019-02-07T01:14:44.383Z,101065.78
2019-02-07T01:15:49.792Z,101062.67
2019-02-07T01:16:55.477Z,101060.50
2019-02-07T01:18:00.702Z,101058.80
2019-02-07T01:19:06.835Z,101051.84
2019-02-07T01:20:13.738Z,101057.13
2019-02-07T01:21:19.164Z,101055.03
2019-02-07T01:22:24.374Z,101052.04
2019-02-07T01:23:29.390Z,101050.34
2019-02-07T01:24:34.941Z,101052.98
2019-02-07T01:25:40.152Z,101052.59
2019-02-07T01:26:45.336Z,101040.82
2019-02-07T01:27:50.560Z,101039.12
2019-02-07T01:28:56.287Z,101041.03
2019-02-07T01:30:01.499Z,101030.54
2019-02-07T01:31:06.869Z,101037.15
2019-02-07T01:32:11.866Z,101037.36
2019-02-07T01:33:17.094Z,101038.67
2019-02-07T01:34:22.417Z,101030.75
2019-02-07T01:35:27.580Z,101032.07
2019-02-07T01:36:32.757Z,101033.01
2019-02-07T01:37:38.244Z,101026.52
2019-02-07T01:38:43.350Z,101021.23
2019-02-07T01:39:48.450Z,101023.02
2019-02-07T01:40:53.581Z,101026.72
2019-02-07T01:41:58.504Z,101025.02
2019-02-07T01:43:03.551Z,101026.93
2019-02-07T01:44:08.932Z,101016.44
2019-02-07T01:45:16.534Z,101022.67
2019-02-07T01:46:21.661Z,101020.99
2019-02-07T01:47:27.330Z,101014.01
2019-02-07T01:48:33.603Z,101008.84
2019-02-07T01:49:38.637Z,101012.30
2019-02-07T01:50:43.841Z,101008.55
2019-02-07T01:51:48.894Z,101009.02
2019-02-07T01:52:54.590Z,101005.05
2019-02-07T01:53:59.602Z,101016.13
2019-02-07T01:55:05.299Z,101001.59
2019-02-07T01:56:10.509Z,101005.17
2019-02-07T01:57:15.586Z,100999.87
2019-02-07T01:58:21.154Z,101002.41
2019-02-07T01:59:26.289Z,100993.66
2019-02-07T02:00:31.411Z,100995.92
2019-02-07T02:01:36.563Z,100993.75
2019-02-07T02:02:41.898Z,100988.93
2019-02-07T02:03:46.930Z,100982.80
2019-02-07T02:04:52.054Z,100991.57
2019-02-07T02:05:57.397Z,100987.73
2019-02-07T02:07:02.850Z,100991.69
2019-02-07T02:08:07.956Z,100989.98
2019-02-07T02:09:13.767Z,100982.91
2019-02-07T02:10:26.072Z,100977.62
2019-02-07T02:11:31.463Z,100974.98
2019-02-07T02:12:36.602Z,100968.38
2019-02-07T02:13:41.723Z,100974.14
2019-02-07T02:14:46.849Z,100975.92
2019-02-07T02:15:51.875Z,100970.38
2019-02-07T02:16:57.004Z,100973.11
2019-02-07T02:18:02.018Z,100972.28
2019-02-07T02:19:07.194Z,100969.27
2019-02-07T02:20:13.056Z,100972.84
2019-02-07T02:21:18.862Z,100969.34
2019-02-07T02:22:24.003Z,100961.16
2019-02-07T02:23:29.551Z,100964.27
2019-02-07T02:24:34.719Z,100958.25
2019-02-07T02:25:39.831Z,100950.53
2019-02-07T02:26:44.918Z,100953.17
2019-02-07T02:27:50.528Z,100951.47
2019-02-07T02:28:55.643Z,100952.41
2019-02-07T02:30:00.798Z,100947.98
2019-02-07T02:31:05.948Z,100953.38
2019-02-07T02:32:11.055Z,100943.28
2019-02-07T02:33:16.317Z,100943.75
2019-02-07T02:34:21.868Z,100937.62
2019-02-07T02:35:27.422Z,100934.51
2019-02-07T02:36:32.474Z,100930.55
2019-02-07T02:37:37.528Z,100934.12
2019-02-07T02:38:42.885Z,100931.86
2019-02-07T02:39:47.996Z,100930.55
2019-02-07T02:40:53.390Z,100924.33
2019-02-07T02:41:59.890Z,100929.14
2019-02-07T02:43:05.057Z,100919.98
2019-02-07T02:44:10.179Z,100926.12
2019-02-07T02:45:16.326Z,100918.28
2019-02-07T02:46:21.473Z,100913.84
2019-02-07T02:47:26.598Z,100915.29
2019-02-07T02:48:31.957Z,100919.25
2019-02-07T02:49:37.034Z,100907.92
2019-02-07T02:50:43.266Z,100902.84
2019-02-07T02:51:48.295Z,100907.78
2019-02-07T02:52:53.541Z,100906.92
2019-02-07T02:54:00.858Z,100903.81
2019-02-07T02:55:06.572Z,100892.48
2019-02-07T02:56:11.675Z,100897.77
2019-02-07T02:57:16.714Z,100888.53
2019-02-07T02:58:21.860Z,100888.14
2019-02-07T02:59:27.378Z,100881.07
2019-02-07T03:01:00.528Z,100877.23
2019-02-07T03:02:31.866Z,100877.49
2019-02-07T03:04:05.119Z,100867.02
2019-02-07T03:05:38.561Z,100864.50
2019-02-07T03:07:17.804Z,100861.94
2019-02-07T03:08:54.355Z,100859.98
2019-02-07T03:10:18.607Z,100851.45
2019-02-07T03:11:47.303Z,100846.72
2019-02-07T03:13:02.301Z,100847.28
2019-02-07T03:14:24.692Z,100847.36
2019-02-07T03:16:03.739Z,100849.92
2019-02-07T03:17:27.841Z,100852.56
2019-02-07T03:18:54.327Z,100844.94
2019-02-07T03:20:26.602Z,100850.69
2019-02-07T03:22:04.402Z,100848.05
2019-02-07T03:23:38.241Z,100844.46
2019-02-07T03:25:17.725Z,100837.09
2019-02-07T03:26:40.763Z,100835.78
2019-02-07T03:28:11.039Z,100830.12
2019-02-07T03:29:28.292Z,100830.33
2019-02-07T03:31:01.334Z,100826.36
2019-02-07T03:32:36.992Z,100813.63
2019-02-07T03:34:08.412Z,100818.06
2019-02-07T03:35:42.260Z,100810.99
2019-02-07T03:36:56.902Z,100810.41
2019-02-07T03:38:15.618Z,100804.39
2019-02-07T03:39:28.159Z,100803.92
2019-02-07T03:40:55.392Z,100797.67
2019-02-07T03:42:18.514Z,100807.67
2019-02-07T03:43:51.782Z,100801.08
2019-02-07T03:45:21.805Z,100795.41
2019-02-07T03:46:54.832Z,100788.73
2019-02-07T03:48:07.441Z,100790.89
2019-02-07T03:49:30.307Z,100795.70
2019-02-07T03:51:03.425Z,100792.59
2019-02-07T03:52:33.676Z,100778.93
2019-02-07T03:54:01.704Z,100785.06
2019-02-07T03:55:28.929Z,100780.98
2019-02-07T03:56:58.681Z,100775.14
2019-02-07T03:58:35.258Z,100769.86
2019-02-07T03:59:57.294Z,100768.06
2019-02-07T04:01:21.403Z,100771.53
2019-02-07T04:02:44.150Z,100765.42
2019-02-07T04:04:20.702Z,100762.28
2019-02-07T04:05:47.443Z,100756.91
2019-02-07T04:07:10.512Z,100755.22
2019-02-07T04:08:33.182Z,100752.44
2019-02-07T04:10:00.097Z,100748.09
2019-02-07T04:11:28.361Z,100753.38
2019-02-07T04:12:50.554Z,100748.48
2019-02-07T04:14:11.363Z,100749.67
2019-02-07T04:15:25.872Z,100746.95
2019-02-07T04:16:52.837Z,100744.30
2019-02-07T04:18:19.948Z,100742.39
2019-02-07T04:19:50.296Z,100743.72
2019-02-07T04:21:17.305Z,100734.85
2019-02-07T04:22:50.757Z,100735.80
2019-02-07T04:24:18.100Z,100736.52
2019-02-07T04:25:54.963Z,100733.41
2019-02-07T04:27:16.296Z,100737.28
2019-02-07T04:28:49.699Z,100732.34
2019-02-07T04:30:15.302Z,100735.48
2019-02-07T04:31:38.336Z,100729.70
2019-02-07T04:33:01.177Z,100728.98
2019-02-07T04:34:24.114Z,100721.52
2019-02-07T04:35:46.810Z,100717.09
2019-02-07T04:37:10.857Z,100722.75
2019-02-07T04:38:31.885Z,100719.14
2019-02-07T04:40:01.805Z,100710.88
2019-02-07T04:41:23.322Z,100709.55
2019-02-07T04:42:45.225Z,100706.44
2019-02-07T04:44:07.566Z,100708.48
2019-02-07T04:45:37.777Z,100702.73
2019-02-07T04:47:13.783Z,100699.34
2019-02-07T04:48:37.744Z,100698.77
2019-02-07T04:50:13.879Z,100701.41
2019-02-07T04:51:43.805Z,100694.91
2019-02-07T04:52:59.242Z,100689.62
2019-02-07T04:54:42.758Z,100687.58
2019-02-07T04:56:06.083Z,100690.09
2019-02-07T04:57:29.136Z,100689.84
2019-02-07T04:58:59.286Z,100687.33
2019-02-07T05:00:35.010Z,100676.38
2019-02-07T05:01:59.107Z,100673.36
2019-02-07T05:03:24.709Z,100666.42
2019-02-07T05:04:40.465Z,100664.97
2019-02-07T05:06:03.114Z,100669.19
2019-02-07T05:07:16.665Z,100666.45
2019-02-07T05:08:49.746Z,100666.70
2019-02-07T05:10:16.500Z,100658.23
2019-02-07T05:11:47.536Z,100661.20
2019-02-07T05:13:03.739Z,100660.73
2019-02-07T05:14:16.688Z,100658.95
2019-02-07T05:15:30.684Z,100655.92
2019-02-07T05:16:53.265Z,100648.48
2019-02-07T05:18:16.643Z,100651.12
2019-02-07T05:19:38.114Z,100646.69
2019-02-07T05:20:54.093Z,100644.52
2019-02-07T05:22:17.101Z,100640.08
2019-02-07T05:23:30.408Z,100648.38
2019-02-07T05:25:00.954Z,100644.89
2019-02-07T05:26:25.759Z,100647.91
2019-02-07T05:27:56.091Z,100644.42
2019-02-07T05:29:13.232Z,100640.08
2019-02-07T05:30:52.846Z,100635.78
2019-02-07T05:32:15.904Z,100629.17
2019-02-07T05:33:46.095Z,100629.52
2019-02-07T05:35:08.961Z,100622.07
2019-02-07T05:36:31.641Z,100621.25
2019-02-07T05:37:54.927Z,100626.53
2019-02-07T05:39:06.403Z,100626.87
2019-02-07T05:40:40.052Z,100616.31
2019-02-07T05:42:07.340Z,100613.20
2019-02-07T05:43:23.429Z,100612.36
2019-02-07T05:44:53.732Z,100607.08
2019-02-07T05:46:06.777Z,100609.38
2019-02-07T05:47:45.976Z,100609.72
2019-02-07T05:49:13.346Z,100605.19
2019-02-07T05:50:43.419Z,100595.44
2019-02-07T05:52:10.485Z,100594.50
2019-02-07T05:53:31.906Z,100591.86
2019-02-07T05:54:54.605Z,100584.41
2019-02-07T05:56:17.911Z,100580.83
2019-02-07T05:57:46.748Z,100585.16
2019-02-07T05:59:26.161Z,100574.47
2019-02-07T06:00:50.047Z,100574.47
2019-02-07T06:02:05.655Z,100575.92
2019-02-07T06:03:28.616Z,100575.45
2019-02-07T06:05:04.756Z,100572.91
2019-02-07T06:06:20.047Z,100574.22
2019-02-07T06:07:44.004Z,100569.31
2019-02-07T06:09:07.548Z,100569.31
2019-02-07T06:10:32.980Z,100568.34
2019-02-07T06:12:00.088Z,100564.66
2019-02-07T06:13:27.306Z,100562.49
2019-02-07T06:14:49.841Z,100567.77
2019-02-07T06:16:32.484Z,100562.49
2019-02-07T06:17:52.745Z,100561.17
2019-02-07T06:19:31.950Z,100561.73
2019-02-07T06:20:51.628Z,100559.09
2019-02-07T06:22:10.192Z,100557.69
2019-02-07T06:23:32.942Z,100558.63
2019-02-07T06:24:56.977Z,100561.89
2019-02-07T06:26:39.739Z,100563.46
2019-02-07T06:28:09.542Z,100559.41
2019-02-07T06:29:21.306Z,100559.41
2019-02-07T06:30:45.879Z,100557.23
2019-02-07T06:32:10.469Z,100560.82
2019-02-07T06:33:33.657Z,100552.08
2019-02-07T06:35:03.772Z,100550.76
2019-02-07T06:36:27.938Z,100550.76
2019-02-07T06:37:52.229Z,100549.31
2019-02-07T06:39:28.717Z,100554.97
2019-02-07T06:40:55.240Z,100550.53
2019-02-07T06:42:21.809Z,100549.69
2019-02-07T06:43:58.380Z,100550.53
2019-02-07T06:45:21.765Z,100556.91
2019-02-07T06:46:44.942Z,100554.14
2019-02-07T06:47:57.795Z,100548.77
2019-02-07T06:49:20.562Z,100544.57
2019-02-07T06:50:44.654Z,100548.06
2019-02-07T06:51:56.376Z,100545.30
2019-02-07T06:53:31.846Z,100539.06
2019-02-07T06:54:59.086Z,100541.33
2019-02-07T06:56:22.208Z,100543.50
2019-02-07T06:57:45.934Z,100542.65
2019-02-07T06:59:16.309Z,100543.97
2019-02-07T07:00:32.284Z,100546.61
2019-02-07T07:01:50.274Z,100540.61
2019-02-07T07:03:14.496Z,100544.20
2019-02-07T07:04:29.412Z,100550.42
2019-02-07T07:05:52.127Z,100541.78
2019-02-07T07:07:10.686Z,100534.80
2019-02-07T07:08:34.756Z,100534.69
2019-02-07T07:09:57.307Z,100538.74
2019-02-07T07:11:24.028Z,100537.18
2019-02-07T07:13:03.409Z,100540.89
2019-02-07T07:14:20.891Z,100535.33
2019-02-07T07:15:33.237Z,100536.02
2019-02-07T07:17:03.036Z,100538.20
2019-02-07T07:18:26.356Z,100541.59
2019-02-07T07:19:49.130Z,100532.81
2019-02-07T07:21:13.537Z,100531.02
2019-02-07T07:22:49.783Z,100536.65
2019-02-07T07:24:14.028Z,100524.30
2019-02-07T07:25:41.075Z,100528.50
2019-02-07T07:27:03.359Z,100530.20
2019-02-07T07:28:26.729Z,100530.58
2019-02-07T07:29:49.759Z,100526.61
2019-02-07T07:31:29.011Z,100525.16
2019-02-07T07:32:48.161Z,100528.18
2019-02-07T07:34:24.323Z,100527.58
2019-02-07T07:35:42.859Z,100530.72
2019-02-07T07:37:05.557Z,100530.34
2019-02-07T07:38:28.410Z,100538.27
2019-02-07T07:39:51.086Z,100539.59
2019-02-07T07:41:13.745Z,100535.41
2019-02-07T07:42:32.809Z,100536.73
2019-02-07T07:43:55.868Z,100531.81
2019-02-07T07:45:18.842Z,100539.61
2019-02-07T07:46:41.921Z,100529.89
2019-02-07T07:48:21.178Z,100535.89
2019-02-07T07:49:35.092Z,100533.53
2019-02-07T07:51:14.466Z,100532.33
2019-02-07T07:52:37.413Z,100537.05
2019-02-07T07:53:53.672Z,100535.59
2019-02-07T07:55:09.533Z,100534.64
2019-02-07T07:56:25.054Z,100526.49
2019-02-07T07:57:48.054Z,100530.59
2019-02-07T07:59:27.263Z,100529.90
2019-02-07T08:00:51.401Z,100529.53
2019-02-07T08:02:15.262Z,100529.30
2019-02-07T08:03:41.821Z,100537.03
2019-02-07T08:04:58.779Z,100529.45
2019-02-07T08:06:25.534Z,100534.63
2019-02-07T08:07:50.833Z,100542.56
2019-02-07T08:09:08.248Z,100544.60
2019-02-07T08:10:40.394Z,100539.22
2019-02-07T08:12:10.821Z,100540.65
2019-02-07T08:13:34.020Z,100536.83
2019-02-07T08:14:57.329Z,100544.42
2019-02-07T08:16:20.657Z,100555.23
2019-02-07T08:17:47.582Z,100559.20
2019-02-07T08:19:09.337Z,100561.24
2019-02-07T08:20:39.301Z,100554.06
2019-02-07T08:22:00.653Z,100555.52
2019-02-07T08:23:11.758Z,100559.59
2019-02-07T08:24:35.048Z,100563.33
2019-02-07T08:25:52.644Z,100567.67
2019-02-07T08:27:16.671Z,100579.34
2019-02-07T08:28:41.195Z,100582.73
2019-02-07T08:30:05.683Z,100594.40
2019-02-07T08:31:23.361Z,100587.17
2019-02-07T08:32:50.450Z,100590.53
2019-02-07T08:34:14.397Z,100579.37
2019-02-07T08:35:47.401Z,100590.30
2019-02-07T08:37:14.515Z,100585.28
2019-02-07T08:38:30.453Z,100585.52
2019-02-07T08:39:46.826Z,100590.68
2019-02-07T08:41:12.892Z,100580.37
2019-02-07T08:42:42.880Z,100588.07
2019-02-07T08:44:04.154Z,100595.03
2019-02-07T08:45:28.301Z,100591.80
2019-02-07T08:47:07.512Z,100591.80
2019-02-07T08:48:30.375Z,100602.39
2019-02-07T08:49:52.702Z,100599.61
2019-02-07T08:51:21.612Z,100603.10
2019-02-07T08:52:49.843Z,100608.39
2019-02-07T08:54:25.947Z,100611.41
2019-02-07T08:55:49.998Z,100609.95
2019-02-07T08:57:11.490Z,100608.91
2019-02-07T08:58:44.631Z,100610.94
2019-02-07T09:00:14.954Z,100615.05
2019-02-07T09:01:43.752Z,100601.34
2019-02-07T09:03:06.854Z,100603.03
2019-02-07T09:04:36.521Z,100604.83
2019-02-07T09:05:59.429Z,100611.47
2019-02-07T09:07:32.110Z,100615.91
2019-02-07T09:08:58.452Z,100615.97
2019-02-07T09:10:24.074Z,100619.33
2019-02-07T09:11:53.605Z,100612.36
2019-02-07T09:13:09.780Z,100612.82
2019-02-07T09:14:35.106Z,100616.55
2019-02-07T09:15:59.160Z,100616.31
2019-02-07T09:17:14.339Z,100623.19
2019-02-07T09:18:37.433Z,100623.19
2019-02-07T09:19:54.492Z,100619.34
2019-02-07T09:21:12.461Z,100622.08
2019-02-07T09:22:28.601Z,100627.73
2019-02-07T09:23:45.466Z,100627.73
2019-02-07T09:25:09.116Z,100624.87
2019-02-07T09:26:25.825Z,100636.55
2019-02-07T09:27:48.735Z,100627.27
2019-02-07T09:29:11.970Z,100630.98
2019-02-07T09:30:40.847Z,100630.98
2019-02-07T09:32:13.830Z,100640.75
2019-02-07T09:33:31.323Z,100631.95
2019-02-07T09:34:54.482Z,100635.22
2019-02-07T09:36:27.310Z,100626.53
2019-02-07T09:38:06.855Z,100628.84
2019-02-07T09:39:46.179Z,100637.75
2019-02-07T09:41:12.375Z,100641.97
2019-02-07T09:42:29.000Z,100648.47
2019-02-07T09:43:51.953Z,100634.86
2019-02-07T09:45:07.167Z,100647.50
2019-02-07T09:46:40.419Z,100650.02
2019-02-07T09:48:02.601Z,100648.95
2019-02-07T09:49:16.550Z,100659.30
2019-02-07T09:50:44.177Z,100658.13
2019-02-07T09:52:07.122Z,100658.33
2019-02-07T09:53:40.440Z,100660.02
2019-02-07T09:54:58.897Z,100656.05
2019-02-07T09:56:23.463Z,100665.70
2019-02-07T09:57:47.214Z,100664.37
2019-02-07T09:59:14.422Z,100659.44
2019-02-07T10:00:36.495Z,100661.95
2019-02-07T10:01:59.198Z,100671.70
2019-02-07T10:03:14.085Z,100674.83
2019-02-07T10:04:41.723Z,100671.70
2019-02-07T10:06:00.663Z,100674.25
2019-02-07T10:07:23.043Z,100673.77
2019-02-07T10:09:05.661Z,100673.53
2019-02-07T10:10:29.010Z,100674.14
2019-02-07T10:12:08.193Z,100672.80
2019-02-07T10:13:32.303Z,100677.25
2019-02-07T10:14:54.754Z,100678.33
2019-02-07T10:16:09.410Z,100677.13
2019-02-07T10:17:25.304Z,100679.91
2019-02-07T10:18:58.503Z,100682.68
2019-02-07T10:20:20.286Z,100682.55
2019-02-07T10:21:41.078Z,100681.34
2019-02-07T10:23:04.093Z,100681.09
2019-02-07T10:24:37.333Z,100683.48
2019-02-07T10:26:10.264Z,100683.48
2019-02-07T10:27:37.132Z,100683.85
2019-02-07T10:29:00.371Z,100673.23
2019-02-07T10:30:35.774Z,100677.33
2019-02-07T10:32:03.045Z,100676.74
2019-02-07T10:33:25.402Z,100675.64
2019-02-07T10:34:48.577Z,100682.40
2019-02-07T10:36:15.142Z,100676.47
2019-02-07T10:37:31.793Z,100669.84
2019-02-07T10:39:05.329Z,100675.17
2019-02-07T10:40:40.998Z,100675.17
2019-02-07T10:42:04.365Z,100687.56
2019-02-07T10:43:27.515Z,100689.03
2019-02-07T10:44:57.898Z,100689.03
2019-02-07T10:46:33.460Z,100676.72
2019-02-07T10:48:10.231Z,100684.79
2019-02-07T10:49:32.055Z,100672.77
2019-02-07T10:50:51.666Z,100674.57
2019-02-07T10:52:15.689Z,100676.60
2019-02-07T10:53:30.679Z,100676.02
2019-02-07T10:54:52.163Z,100678.05
2019-02-07T10:56:28.587Z,100675.14
2019-02-07T10:57:58.935Z,100675.14
2019-02-07T10:59:28.563Z,100664.43
2019-02-07T11:00:58.524Z,100664.43
2019-02-07T11:02:41.576Z,100672.02
2019-02-07T11:04:06.027Z,100657.54
2019-02-07T11:05:44.052Z,100657.17
2019-02-07T11:06:56.645Z,100653.31
2019-02-07T11:08:23.794Z,100653.31
2019-02-07T11:09:50.417Z,100659.47
2019-02-07T11:11:18.171Z,100658.48
2019-02-07T11:12:46.869Z,100666.92
2019-02-07T11:14:05.130Z,100664.63
2019-02-07T11:15:43.207Z,100654.98
2019-02-07T11:17:10.502Z,100654.47
2019-02-07T11:18:28.879Z,100654.47
2019-02-07T11:19:57.370Z,100660.74
2019-02-07T11:21:16.097Z,100653.41
2019-02-07T11:22:55.551Z,100653.41
2019-02-07T11:24:31.442Z,100656.88
2019-02-07T11:25:54.205Z,100663.52
2019-02-07T11:27:36.402Z,100658.09
2019-02-07T11:29:00.136Z,100656.31
2019-02-07T11:30:17.895Z,100659.69
2019-02-07T11:31:51.076Z,100659.69
2019-02-07T11:33:17.925Z,100656.81
2019-02-07T11:34:46.990Z,100657.20
2019-02-07T11:36:09.813Z,100640.69
2019-02-07T11:37:40.136Z,100640.69
2019-02-07T11:39:03.077Z,100651.91
2019-02-07T11:40:45.450Z,100659.39
2019-02-07T11:42:03.714Z,100661.19
2019-02-07T11:43:26.146Z,100652.02
2019-02-07T11:44:56.657Z,100648.06
2019-02-07T11:46:37.467Z,100648.06
2019-02-07T11:47:59.357Z,100650.36
2019-02-07T11:49:38.689Z,100647.23
2019-02-07T11:50:55.036Z,100637.80
2019-02-07T11:52:18.865Z,100637.80
2019-02-07T11:53:43.392Z,100639.11
2019-02-07T11:55:06.397Z,100640.70
2019-02-07T11:56:30.887Z,100636.58
2019-02-07T11:58:10.337Z,100636.58
2019-02-07T11:59:46.788Z,100641.47
2019-02-07T12:01:19.679Z,100641.47
2019-02-07T12:02:42.388Z,100639.16
2019-02-07T12:04:00.255Z,100638.90
2019-02-07T12:05:17.298Z,100635.40
2019-02-07T12:06:40.622Z,100633.45
2019-02-07T12:08:03.747Z,100623.91
2019-02-07T12:09:29.242Z,100632.71
2019-02-07T12:10:54.810Z,100634.23
2019-02-07T12:12:22.808Z,100632.86
2019-02-07T12:13:46.999Z,100631.64
2019-02-07T12:15:09.396Z,100628.73
2019-02-07T12:16:34.222Z,100620.98
2019-02-07T12:17:48.474Z,100615.34
2019-02-07T12:19:03.038Z,100615.94
2019-02-07T12:20:21.192Z,100612.31
2019-02-07T12:21:48.647Z,100614.49
2019-02-07T12:23:24.842Z,100610.63
2019-02-07T12:24:48.585Z,100610.63
2019-02-07T12:26:14.698Z,100612.95
2019-02-07T12:27:51.266Z,100612.22
2019-02-07T12:29:33.507Z,100616.45
2019-02-07T12:30:56.754Z,100617.19
2019-02-07T12:32:19.603Z,100617.30
2019-02-07T12:33:35.009Z,100612.63
2019-02-07T12:34:52.137Z,100610.08
2019-02-07T12:36:05.961Z,100626.97
2019-02-07T12:37:48.232Z,100612.63
2019-02-07T12:39:01.839Z,100616.94
2019-02-07T12:40:17.492Z,100625.15
2019-02-07T12:41:37.776Z,100622.23
2019-02-07T12:43:00.346Z,100623.56
2019-02-07T12:44:27.365Z,100622.45
2019-02-07T12:45:49.329Z,100634.26
2019-02-07T12:47:27.430Z,100627.28
2019-02-07T12:48:54.094Z,100629.71
2019-02-07T12:50:30.643Z,100630.41
2019-02-07T12:52:00.404Z,100631.48
2019-02-07T12:53:30.522Z,100630.52
2019-02-07T12:54:56.230Z,100630.52
2019-02-07T12:56:17.696Z,100626.90
2019-02-07T12:57:41.018Z,100626.90
2019-02-07T12:58:57.628Z,100631.95
2019-02-07T13:00:37.245Z,100620.00
2019-02-07T13:01:59.166Z,100620.00
2019-02-07T13:03:22.385Z,100616.45
2019-02-07T13:04:41.325Z,100616.94
2019-02-07T13:06:21.183Z,100613.58
2019-02-07T13:07:46.630Z,100618.05
2019-02-07T13:09:03.035Z,100615.54
2019-02-07T13:10:28.791Z,100605.40
2019-02-07T13:12:09.275Z,100615.54
2019-02-07T13:13:23.344Z,100599.23
2019-02-07T13:14:34.217Z,100595.30
2019-02-07T13:15:58.808Z,100609.50
2019-02-07T13:17:38.420Z,100605.73
2019-02-07T13:19:21.629Z,100602.86
2019-02-07T13:20:49.009Z,100604.67
2019-02-07T13:22:20.359Z,100607.06
2019-02-07T13:23:42.887Z,100604.07
2019-02-07T13:25:05.946Z,100605.25
2019-02-07T13:26:24.657Z,100609.48
2019-02-07T13:27:43.807Z,100600.89
2019-02-07T13:29:10.957Z,100606.56
2019-02-07T13:30:42.649Z,100608.48
2019-02-07T13:31:55.661Z,100601.06
2019-02-07T13:33:34.854Z,100609.75
2019-02-07T13:34:58.061Z,100610.60
2019-02-07T13:36:20.957Z,100606.95
2019-02-07T13:37:34.794Z,100603.81
2019-02-07T13:39:04.868Z,100597.54
2019-02-07T13:40:22.175Z,100604.88
2019-02-07T13:41:49.872Z,100605.34
2019-02-07T13:43:12.904Z,100597.44
2019-02-07T13:44:45.933Z,100604.33
2019-02-07T13:46:00.492Z,100607.56
2019-02-07T13:47:34.268Z,100611.18
2019-02-07T13:48:58.416Z,100614.69
2019-02-07T13:50:21.666Z,100612.88
2019-02-07T13:51:44.414Z,100614.62
2019-02-07T13:53:01.466Z,100621.85
2019-02-07T13:54:32.242Z,100608.30
2019-02-07T13:56:05.440Z,100613.83
2019-02-07T13:57:41.824Z,100612.86
2019-02-07T13:59:05.035Z,100615.25
2019-02-07T14:00:39.454Z,100616.79
2019-02-07T14:01:54.961Z,100616.67
2019-02-07T14:03:28.365Z,100622.35
2019-02-07T14:04:51.003Z,100614.62
2019-02-07T14:06:24.076Z,100620.56
2019-02-07T14:07:50.316Z,100612.47
2019-02-07T14:09:14.449Z,100615.46
2019-02-07T14:10:56.464Z,100615.46
2019-02-07T14:12:19.661Z,100624.55
2019-02-07T14:13:42.376Z,100617.81
2019-02-07T14:15:13.367Z,100625.36
2019-02-07T14:16:40.695Z,100622.60
2019-02-07T14:18:03.861Z,100618.19
2019-02-07T14:19:28.043Z,100619.05
2019-02-07T14:20:46.104Z,100616.30
2019-02-07T14:22:16.488Z,100624.80
2019-02-07T14:23:42.825Z,100620.23
2019-02-07T14:25:09.965Z,100620.02
2019-02-07T14:26:34.081Z,100625.59
2019-02-07T14:27:57.121Z,100628.24
2019-02-07T14:29:30.182Z,100633.19
2019-02-07T14:30:49.428Z,100634.63
2019-02-07T14:32:12.585Z,100637.64
2019-02-07T14:33:31.003Z,100639.34
2019-02-07T14:34:46.691Z,100644.65
2019-02-07T14:36:09.380Z,100651.28
2019-02-07T14:37:26.434Z,100651.14
2019-02-07T14:38:49.126Z,100651.02
2019-02-07T14:40:12.044Z,100659.69
2019-02-07T14:41:38.167Z,100663.05
2019-02-07T14:43:01.486Z,100656.07
2019-02-07T14:44:24.775Z,100672.71
2019-02-07T14:45:38.930Z,100664.37
2019-02-07T14:46:49.153Z,100668.36
2019-02-07T14:47:54.174Z,100664.27
2019-02-07T14:48:59.686Z,100661.82
2019-02-07T14:50:14.534Z,100662.19
2019-02-07T14:51:12.199Z,100668.56
2019-02-07T14:52:17.353Z,100673.25
2019-02-07T14:53:22.769Z,100669.62
2019-02-07T14:54:28.117Z,100666.61
2019-02-07T14:55:33.131Z,100665.42
2019-02-07T14:56:38.596Z,100669.89
2019-02-07T14:57:43.709Z,100665.06
2019-02-07T14:58:49.083Z,100664.58
2019-02-07T14:59:54.206Z,100664.58
2019-02-07T15:00:59.379Z,100665.91
2019-02-07T15:02:04.770Z,100663.47
2019-02-07T15:03:10.449Z,100661.66
2019-02-07T15:04:15.514Z,100664.68
2019-02-07T15:05:21.223Z,100667.19
2019-02-07T15:06:26.609Z,100664.41
2019-02-07T15:07:34.135Z,100670.06
2019-02-07T15:08:39.231Z,100669.58
2019-02-07T15:09:44.192Z,100665.11
2019-02-07T15:10:49.219Z,100667.41
2019-02-07T15:11:54.371Z,100673.23
2019-02-07T15:13:01.283Z,100675.04
2019-02-07T15:14:07.033Z,100670.69
2019-02-07T15:15:13.743Z,100680.36
2019-02-07T15:16:18.785Z,100681.53
2019-02-07T15:17:25.220Z,100681.42
2019-02-07T15:18:30.672Z,100677.17
2019-02-07T15:19:36.059Z,100676.54
2019-02-07T15:20:41.166Z,100679.08
2019-02-07T15:21:46.379Z,100674.95
2019-02-07T15:22:51.584Z,100682.66
2019-02-07T15:23:56.958Z,100677.59
2019-02-07T15:25:02.467Z,100675.73
2019-02-07T15:26:08.406Z,100670.19
2019-02-07T15:27:13.367Z,100673.18
2019-02-07T15:28:18.469Z,100677.31
2019-02-07T15:29:23.519Z,100679.12
2019-02-07T15:30:28.645Z,100674.18